Time;durP1;ratioP1;P1;durP2;ratioP2;P2;SDS_P1;SDS_P2;PMS_P1;PMS_P2;Temp;Humidity;BMP_temperature;BMP_pressure;BME280_temperature;BME280_humidity;BME280_pressure;Samples;Min_cycle;Max_cycle;Signal;HPM_P1;HPM_P2
2022/05/09 00:01:26;;;;;;;3.33;1.20;;;;;;;20.51;60.86;100962.50;5031803;28;20169;-58
2022/05/09 00:03:51;;;;;;;1.80;0.90;;;;;;;20.50;60.74;100966.59;5032027;28;20176;-58
2022/05/09 00:06:17;;;;;;;2.37;1.30;;;;;;;20.51;61.09;100968.25;5031477;28;20199;-58
2022/05/09 00:08:45;;;;;;;2.70;1.10;;;;;;;20.52;61.12;100963.34;5031697;28;20184;-58
2022/05/09 00:11:11;;;;;;;1.67;1.03;;;;;;;20.51;60.98;100967.41;5032370;28;20172;-58
2022/05/09 00:13:37;;;;;;;1.97;1.30;;;;;;;20.49;60.83;100962.06;5033253;28;20419;-58
2022/05/09 00:16:03;;;;;;;1.70;0.90;;;;;;;20.51;60.85;100965.38;5032513;28;20455;-58
2022/05/09 00:18:28;;;;;;;2.10;1.10;;;;;;;20.50;61.14;100969.47;5032943;28;20714;-59
2022/05/09 00:20:54;;;;;;;1.90;1.10;;;;;;;20.50;61.05;100966.59;5032394;28;20188;-58
2022/05/09 00:23:19;;;;;;;2.80;1.13;;;;;;;20.50;60.79;100975.19;5033020;28;20204;-58
2022/05/09 00:25:45;;;;;;;2.00;1.30;;;;;;;20.51;61.12;100973.13;5031942;28;20203;-58
2022/05/09 00:28:10;;;;;;;2.47;1.30;;;;;;;20.49;61.09;100982.16;5033196;28;20181;-58
2022/05/09 00:30:36;;;;;;;2.57;1.10;;;;;;;20.49;60.91;100985.00;5032550;28;20235;-58
2022/05/09 00:33:01;;;;;;;1.80;1.10;;;;;;;20.48;61.02;100971.88;5032199;28;20187;-58
2022/05/09 00:35:27;;;;;;;2.10;1.20;;;;;;;20.49;61.28;100966.97;5032072;28;20189;-58
2022/05/09 00:37:52;;;;;;;2.20;1.20;;;;;;;20.49;61.32;100961.22;5032396;28;20199;-58
2022/05/09 00:40:18;;;;;;;1.93;1.10;;;;;;;20.49;61.23;100962.06;5032360;28;20176;-58
2022/05/09 00:42:48;;;;;;;1.70;1.10;;;;;;;20.50;60.80;100963.72;5032551;28;20168;-58
2022/05/09 00:45:13;;;;;;;1.77;1.00;;;;;;;20.49;61.21;100969.84;5031613;28;20177;-58
2022/05/09 00:47:39;;;;;;;2.37;1.10;;;;;;;20.49;60.94;100973.53;5032325;28;20465;-58
2022/05/09 00:50:06;;;;;;;1.70;0.97;;;;;;;20.48;60.79;100971.03;5032092;28;20184;-58
2022/05/09 00:52:43;;;;;;;1.57;0.93;;;;;;;20.48;61.13;100974.75;5032361;28;20276;-58
2022/05/09 00:55:15;;;;;;;2.10;1.20;;;;;;;20.49;61.34;100975.56;5032209;28;20478;-58
2022/05/09 00:57:51;;;;;;;1.97;1.20;;;;;;;20.48;60.87;100969.03;5032251;28;20459;-58
2022/05/09 01:00:17;;;;;;;1.73;1.07;;;;;;;20.49;60.99;100970.69;5032706;28;20403;-58
2022/05/09 01:02:46;;;;;;;1.73;1.17;;;;;;;20.48;60.97;100966.16;5030433;28;20438;-58
2022/05/09 01:05:12;;;;;;;2.13;1.10;;;;;;;20.48;60.97;100971.88;5031835;28;20423;-58
2022/05/09 01:07:38;;;;;;;2.10;1.10;;;;;;;20.48;61.16;100968.19;5032254;28;20455;-58
2022/05/09 01:10:04;;;;;;;2.23;1.23;;;;;;;20.48;60.92;100971.03;5032086;28;20442;-58
2022/05/09 01:12:31;;;;;;;2.27;1.10;;;;;;;20.48;60.95;100965.31;5031731;28;20184;-59
2022/05/09 01:15:00;;;;;;;1.90;0.93;;;;;;;20.47;60.69;100964.47;5031967;28;20234;-58
2022/05/09 01:17:26;;;;;;;2.13;1.33;;;;;;;20.47;60.93;100964.47;5030980;28;20426;-57
2022/05/09 01:19:53;;;;;;;1.50;0.80;;;;;;;20.48;61.13;100965.31;5031301;28;20443;-58
2022/05/09 01:22:21;;;;;;;2.03;1.10;;;;;;;20.47;60.89;100972.25;5030691;28;20184;-58
2022/05/09 01:24:46;;;;;;;1.70;1.10;;;;;;;20.47;61.17;100961.59;5030727;28;20498;-58
2022/05/09 01:27:12;;;;;;;2.20;1.23;;;;;;;20.46;61.17;100965.69;5030720;28;20426;-57
2022/05/09 01:29:43;;;;;;;2.37;1.47;;;;;;;20.47;61.28;100973.06;5031674;28;20746;-58
2022/05/09 01:32:10;;;;;;;1.90;1.20;;;;;;;20.46;61.00;100962.00;5031220;28;20195;-58
2022/05/09 01:34:36;;;;;;;1.60;0.90;;;;;;;20.47;60.80;100975.13;5013887;28;20426;-58
2022/05/09 01:37:03;;;;;;;2.00;1.30;;;;;;;20.48;61.06;100968.19;5013742;28;20431;-58
2022/05/09 01:39:30;;;;;;;2.40;1.30;;;;;;;20.45;60.89;100966.91;5031751;28;20704;-58
2022/05/09 01:42:03;;;;;;;2.67;1.40;;;;;;;20.46;61.14;100967.75;5031394;28;20442;-58
2022/05/09 01:44:29;;;;;;;2.10;1.17;;;;;;;20.46;61.33;100971.41;5031492;28;20447;-58
2022/05/09 01:49:40;;;;;;;1.90;1.27;;;;;;;20.46;60.96;100971.41;5031375;28;20566;-57
2022/05/09 01:52:06;;;;;;;2.03;1.30;;;;;;;20.46;60.99;100974.28;5031068;28;20430;-58
2022/05/09 01:54:32;;;;;;;1.90;1.20;;;;;;;20.46;60.99;100976.34;5031207;28;20430;-58
2022/05/09 01:56:58;;;;;;;1.90;1.20;;;;;;;20.47;61.01;100981.69;5030472;28;20514;-58
2022/05/09 01:59:23;;;;;;;1.70;1.00;;;;;;;20.46;61.20;100976.34;5031083;28;20176;-57
2022/05/09 02:02:10;;;;;;;2.13;1.23;;;;;;;20.46;60.92;100973.47;5030937;28;20176;-58
2022/05/09 02:04:40;;;;;;;2.07;1.03;;;;;;;20.45;61.14;100978.38;5030195;28;20207;-58
2022/05/09 02:07:09;;;;;;;1.80;1.07;;;;;;;20.45;61.10;100977.53;5013654;28;20561;-58
2022/05/09 02:09:42;;;;;;;1.93;1.20;;;;;;;20.45;61.11;100977.53;5030874;28;20419;-58
2022/05/09 02:12:08;;;;;;;1.83;1.17;;;;;;;20.45;61.18;100981.25;5030442;28;20434;-58
2022/05/09 02:14:33;;;;;;;2.00;1.03;;;;;;;20.44;60.90;100982.44;5029731;28;20427;-58
2022/05/09 02:16:59;;;;;;;3.27;1.20;;;;;;;20.45;61.27;100981.25;5013226;28;20222;-58
2022/05/09 02:19:25;;;;;;;2.43;1.00;;;;;;;20.46;61.04;100979.22;5030771;28;20184;-57
2022/05/09 02:21:50;;;;;;;1.73;1.00;;;;;;;20.46;60.94;100984.94;5030718;28;20627;-58
2022/05/09 02:24:15;;;;;;;2.43;1.20;;;;;;;20.45;61.23;100981.25;5030861;28;20191;-58
2022/05/09 02:26:41;;;;;;;1.97;1.03;;;;;;;20.45;60.99;100977.53;5030964;28;20180;-58
2022/05/09 02:29:06;;;;;;;1.80;1.10;;;;;;;20.45;61.19;100977.53;5030174;28;20231;-58
2022/05/09 02:31:34;;;;;;;1.93;1.30;;;;;;;20.44;60.98;100973.00;5030618;28;20176;-58
2022/05/09 02:34:01;;;;;;;2.00;1.10;;;;;;;20.45;60.98;100975.50;5030427;28;20199;-57
2022/05/09 02:36:27;;;;;;;1.83;1.10;;;;;;;20.45;61.14;100977.53;5030659;28;20816;-58
2022/05/09 02:38:52;;;;;;;2.03;1.33;;;;;;;20.45;61.33;100974.66;5029414;28;20435;-58
2022/05/09 02:41:17;;;;;;;1.83;1.17;;;;;;;20.44;60.99;100973.84;5030752;28;20539;-58
2022/05/09 02:43:43;;;;;;;2.73;1.07;;;;;;;20.43;61.16;100975.06;5030688;28;20168;-58
2022/05/09 02:46:08;;;;;;;2.80;1.23;;;;;;;20.44;61.17;100975.88;5030665;28;20172;-58
2022/05/09 02:48:35;;;;;;;1.83;1.27;;;;;;;20.44;61.38;100979.59;5030472;28;20604;-58
2022/05/09 02:51:01;;;;;;;2.13;1.30;;;;;;;20.44;61.17;100973.00;5030513;28;20188;-58
2022/05/09 02:53:26;;;;;;;2.10;1.33;;;;;;;20.45;61.07;100971.78;5030666;28;20411;-58
2022/05/09 02:55:52;;;;;;;1.60;1.07;;;;;;;20.44;61.20;100978.75;5030049;28;20569;-58
2022/05/09 02:58:17;;;;;;;2.17;1.10;;;;;;;20.43;61.11;100975.06;5030613;28;20234;-58
2022/05/09 03:00:42;;;;;;;2.73;1.00;;;;;;;20.43;61.01;100980.78;5029684;28;20216;-58
2022/05/09 03:05:57;;;;;;;2.03;1.10;;;;;;;20.43;61.24;100971.34;4991430;28;20196;-58
2022/05/09 03:08:23;;;;;;;2.10;1.20;;;;;;;20.44;61.22;100981.59;5012813;28;20438;-58
2022/05/09 03:10:48;;;;;;;2.17;1.20;;;;;;;20.43;61.33;100975.06;5033023;28;20183;-58
2022/05/09 03:13:14;;;;;;;2.20;1.40;;;;;;;20.43;61.11;100971.34;5032319;28;20199;-58
2022/05/09 03:15:41;;;;;;;1.77;1.17;;;;;;;20.42;61.43;100973.38;5034008;28;20200;-58
2022/05/09 03:18:07;;;;;;;1.90;1.30;;;;;;;20.43;61.28;100972.19;5033917;28;20235;-58
2022/05/09 03:20:33;;;;;;;1.83;1.20;;;;;;;20.42;61.06;100972.56;5033821;28;20541;-58
2022/05/09 03:22:58;;;;;;;2.00;1.13;;;;;;;20.42;61.22;100973.38;5034168;28;20594;-58
2022/05/09 03:25:24;;;;;;;1.80;1.10;;;;;;;20.42;61.28;100970.50;5034027;28;20169;-58
2022/05/09 03:27:49;;;;;;;1.93;1.20;;;;;;;20.42;61.06;100976.25;5016175;28;20694;-58
2022/05/09 03:30:15;;;;;;;1.90;1.20;;;;;;;20.42;61.40;100967.63;5033696;28;20228;-58
2022/05/09 03:32:41;;;;;;;3.23;1.30;;;;;;;20.41;61.35;100968.03;5033682;28;20187;-58
2022/05/09 03:35:08;;;;;;;1.80;1.10;;;;;;;20.42;61.22;100966.81;5033702;28;20184;-58
2022/05/09 03:37:33;;;;;;;2.23;1.30;;;;;;;20.41;61.35;100963.13;5033469;28;20181;-59
2022/05/09 03:39:58;;;;;;;2.40;1.37;;;;;;;20.42;61.40;100964.78;5033723;28;20770;-58
2022/05/09 03:42:24;;;;;;;1.97;1.17;;;;;;;20.41;61.19;100965.97;5033667;28;20519;-58
2022/05/09 03:44:49;;;;;;;1.87;1.23;;;;;;;20.41;61.31;100971.72;5033763;28;20169;-58
2022/05/09 03:47:15;;;;;;;2.00;1.20;;;;;;;20.41;61.15;100968.84;5033476;28;20527;-58
2022/05/09 03:49:41;;;;;;;2.37;1.23;;;;;;;20.41;61.34;100976.66;5033435;28;20246;-58
2022/05/09 03:52:06;;;;;;;2.10;1.07;;;;;;;20.41;61.35;100965.16;5033692;28;20172;-58
2022/05/09 03:54:32;;;;;;;1.90;1.10;;;;;;;20.42;61.33;100969.69;5033263;28;20176;-58
2022/05/09 03:56:57;;;;;;;2.10;1.30;;;;;;;20.41;61.37;100965.16;5033475;28;20172;-58
2022/05/09 03:59:23;;;;;;;1.70;1.00;;;;;;;20.41;60.98;100965.97;5033303;28;20176;-58
2022/05/09 04:01:51;;;;;;;1.90;1.10;;;;;;;20.42;61.21;100978.31;5033591;28;20184;-58
2022/05/09 04:04:17;;;;;;;1.70;1.10;;;;;;;20.41;60.69;100980.31;5033007;28;20259;-58
2022/05/09 04:06:42;;;;;;;2.60;1.20;;;;;;;20.41;60.96;100983.19;5033056;28;20418;-58
2022/05/09 04:09:08;;;;;;;2.10;1.40;;;;;;;20.41;61.11;100977.47;5032921;28;20188;-58
2022/05/09 04:11:33;;;;;;;1.80;1.10;;;;;;;20.41;61.49;100979.50;5032649;28;20187;-58
2022/05/09 04:13:59;;;;;;;2.03;0.93;;;;;;;20.40;61.39;100978.66;5033114;28;20172;-58
2022/05/09 04:19:09;;;;;;;1.80;1.13;;;;;;;20.41;61.36;100988.94;5032183;28;20264;-58
2022/05/09 04:21:34;;;;;;;2.20;1.23;;;;;;;20.41;60.88;100985.25;5032596;28;20419;-58
2022/05/09 04:24:01;;;;;;;2.23;1.40;;;;;;;20.40;60.97;100990.16;5032830;28;20169;-58
2022/05/09 04:26:26;;;;;;;1.90;1.20;;;;;;;20.40;61.23;100990.16;5032898;28;20173;-57
2022/05/09 04:28:51;;;;;;;1.80;1.10;;;;;;;20.40;60.97;100995.88;5014369;28;20422;-58
2022/05/09 04:31:19;;;;;;;2.53;1.17;;;;;;;20.40;61.15;100992.16;5032823;28;20169;-59
2022/05/09 04:33:46;;;;;;;2.27;1.27;;;;;;;20.40;61.28;100998.75;5032735;28;20589;-58
2022/05/09 04:36:11;;;;;;;2.00;1.13;;;;;;;20.40;61.30;100993.00;5032885;28;20462;-58
2022/05/09 04:38:40;;;;;;;1.80;1.23;;;;;;;20.41;61.25;100985.25;5032675;28;20169;-58
2022/05/09 04:41:06;;;;;;;2.20;1.40;;;;;;;20.40;61.16;101001.63;5014835;28;20259;-58
2022/05/09 04:43:33;;;;;;;1.80;1.07;;;;;;;20.41;61.08;101002.47;5032214;28;20465;-58
2022/05/09 04:45:59;;;;;;;4.13;1.20;;;;;;;20.41;60.95;100999.59;5032038;28;20545;-58
2022/05/09 04:48:25;;;;;;;2.50;1.37;;;;;;;20.40;60.90;101001.63;5032059;28;20516;-58
2022/05/09 04:50:50;;;;;;;2.27;1.37;;;;;;;20.42;60.96;100995.50;5032235;28;20513;-58
2022/05/09 04:53:19;;;;;;;2.23;1.40;;;;;;;20.42;60.79;101004.94;5014194;28;20177;-58
2022/05/09 04:55:45;;;;;;;1.93;1.03;;;;;;;20.41;61.20;101005.31;5031085;28;20254;-58
2022/05/09 04:58:14;;;;;;;1.90;1.10;;;;;;;20.43;61.29;101002.91;5032264;28;20426;-58
2022/05/09 05:00:40;;;;;;;1.77;1.03;;;;;;;20.43;61.13;101009.47;5032082;28;20208;-58
2022/05/09 05:03:05;;;;;;;1.70;1.10;;;;;;;20.45;60.61;101009.06;5030829;28;20850;-59
2022/05/09 05:05:31;;;;;;;1.70;1.07;;;;;;;20.45;61.04;101001.31;5031478;28;20180;-58
2022/05/09 05:07:56;;;;;;;2.07;1.43;;;;;;;20.46;60.83;101008.72;5031751;28;20191;-59
2022/05/09 05:10:22;;;;;;;3.03;1.43;;;;;;;20.46;60.57;101002.97;5030755;28;20655;-58
2022/05/09 05:12:47;;;;;;;1.90;1.00;;;;;;;20.46;60.48;101008.72;5032035;28;20212;-59
2022/05/09 05:15:13;;;;;;;3.40;1.23;;;;;;;20.45;60.74;101004.19;5031541;28;20607;-58
2022/05/09 05:17:39;;;;;;;1.70;1.10;;;;;;;20.45;60.40;101000.47;5032081;28;20169;-58
2022/05/09 05:20:09;;;;;;;1.90;1.10;;;;;;;20.46;60.65;101014.44;5031951;28;20223;-58
2022/05/09 05:22:37;;;;;;;2.00;1.20;;;;;;;20.46;60.59;101011.56;5031048;28;20168;-57
2022/05/09 05:25:03;;;;;;;1.90;1.03;;;;;;;20.46;60.84;101013.63;5031738;28;20416;-58
2022/05/09 05:27:29;;;;;;;1.60;1.00;;;;;;;20.46;60.79;101016.50;5031682;28;20481;-58
2022/05/09 05:29:57;;;;;;;2.40;1.40;;;;;;;20.45;60.80;101018.53;5031238;28;20502;-59
2022/05/09 05:32:31;;;;;;;2.20;1.37;;;;;;;20.45;60.75;101018.53;5031655;28;20735;-58
2022/05/09 05:34:57;;;;;;;2.00;1.27;;;;;;;20.44;60.72;101022.59;5031564;28;21229;-58
2022/05/09 05:37:22;;;;;;;2.00;1.40;;;;;;;20.44;60.82;101028.34;5031454;28;20423;-58
2022/05/09 05:39:48;;;;;;;2.07;1.27;;;;;;;20.45;60.88;101023.41;5031481;28;20183;-59
2022/05/09 05:42:17;;;;;;;1.80;1.10;;;;;;;20.45;60.90;101024.25;5031274;28;20709;-58
2022/05/09 05:44:43;;;;;;;2.00;1.10;;;;;;;20.45;60.65;101029.16;5031616;28;20584;-58
2022/05/09 05:47:12;;;;;;;1.70;1.20;;;;;;;20.44;60.79;101033.25;5031468;28;20419;-58
2022/05/09 05:49:37;;;;;;;2.00;1.00;;;;;;;20.45;61.01;101034.88;5031307;28;20218;-58
2022/05/09 05:52:03;;;;;;;1.97;1.37;;;;;;;20.44;61.04;101034.09;5031357;28;20422;-58
2022/05/09 05:54:34;;;;;;;1.77;1.23;;;;;;;20.45;60.93;101047.22;5031281;28;20514;-59
2022/05/09 05:57:00;;;;;;;1.87;1.23;;;;;;;20.45;61.07;101041.47;5030995;28;20466;-59
2022/05/09 05:59:26;;;;;;;2.20;1.40;;;;;;;20.47;60.82;101046.84;5031130;28;20419;-58
2022/05/09 06:01:52;;;;;;;1.97;1.17;;;;;;;20.45;61.15;101044.34;5031212;28;20418;-58
2022/05/09 06:04:19;;;;;;;2.40;1.50;;;;;;;20.46;60.80;101054.59;5031281;28;20238;-59
2022/05/09 06:06:44;;;;;;;1.80;1.20;;;;;;;20.45;60.75;101047.22;5031249;28;20175;-58
2022/05/09 06:09:13;;;;;;;2.10;1.10;;;;;;;20.46;60.90;101048.88;5012086;28;20431;-59
2022/05/09 06:11:40;;;;;;;2.00;1.13;;;;;;;20.46;60.77;101054.59;5030723;28;20192;-59
2022/05/09 06:14:07;;;;;;;2.00;1.23;;;;;;;20.46;61.03;101054.59;5030404;28;20458;-58
2022/05/09 06:16:33;;;;;;;2.57;1.47;;;;;;;20.46;61.28;101053.78;5030778;28;20539;-58
2022/05/09 06:18:59;;;;;;;1.90;1.10;;;;;;;20.46;60.83;101057.47;5030875;28;20403;-59
2022/05/09 06:21:25;;;;;;;1.87;1.20;;;;;;;20.46;60.72;101059.53;5030889;28;20506;-58
2022/05/09 06:23:50;;;;;;;2.10;1.10;;;;;;;20.44;61.23;101062.75;5030632;28;20753;-58
2022/05/09 06:26:16;;;;;;;1.70;1.00;;;;;;;20.45;61.09;101069.31;5030676;28;20172;-58
2022/05/09 06:28:41;;;;;;;2.07;1.10;;;;;;;20.45;60.90;101064.41;5030771;28;20180;-58
2022/05/09 06:31:07;;;;;;;2.10;1.30;;;;;;;20.44;61.13;101062.75;5030420;28;20270;-58
2022/05/09 06:33:32;;;;;;;2.47;1.10;;;;;;;20.45;60.94;101070.16;5030493;28;20180;-58
2022/05/09 06:35:58;;;;;;;1.70;1.10;;;;;;;20.44;60.97;101062.75;5030615;28;20258;-58
2022/05/09 06:38:25;;;;;;;2.23;1.27;;;;;;;20.44;61.04;101068.50;5013045;28;20259;-58
2022/05/09 06:40:52;;;;;;;2.00;1.30;;;;;;;20.44;61.09;101068.50;5030546;28;20221;-58
2022/05/09 06:43:17;;;;;;;1.77;1.10;;;;;;;20.46;60.81;101073.88;5032748;28;20420;-58
2022/05/09 06:45:43;;;;;;;2.00;1.30;;;;;;;20.45;61.04;101073.03;5034486;28;20941;-58
2022/05/09 06:48:09;;;;;;;1.80;1.20;;;;;;;20.46;61.05;101066.06;5034165;28;20203;-58
2022/05/09 06:50:36;;;;;;;2.93;1.40;;;;;;;20.46;61.11;101082.47;5015437;28;20632;-58
2022/05/09 06:53:02;;;;;;;2.00;1.20;;;;;;;20.45;60.94;101075.91;5033799;28;20655;-58
2022/05/09 06:55:27;;;;;;;2.10;1.40;;;;;;;20.44;60.95;101077.09;5033544;28;20450;-59
2022/05/09 06:57:53;;;;;;;2.10;1.30;;;;;;;20.45;61.17;101080.78;5033309;28;20180;-58
2022/05/09 07:00:20;;;;;;;2.43;1.37;;;;;;;20.45;61.29;101075.91;5034106;28;20169;-58
2022/05/09 07:02:46;;;;;;;2.47;1.20;;;;;;;20.45;61.21;101083.66;5034134;28;20196;-58
2022/05/09 07:05:12;;;;;;;1.90;1.10;;;;;;;20.45;60.95;101077.91;5034270;28;20423;-58
2022/05/09 07:07:38;;;;;;;1.90;1.10;;;;;;;20.44;60.96;101079.97;5034669;28;20184;-59
2022/05/09 07:10:04;;;;;;;1.90;1.10;;;;;;;20.44;61.14;101073.41;5016040;28;20493;-58
2022/05/09 07:12:30;;;;;;;1.90;1.30;;;;;;;20.44;60.93;101077.09;5016308;28;20535;-59
2022/05/09 07:14:55;;;;;;;1.80;1.10;;;;;;;20.45;60.81;101072.19;5015193;28;20484;-58
2022/05/09 07:17:23;;;;;;;2.00;1.30;;;;;;;20.45;60.86;101069.31;5033592;28;20176;-59
2022/05/09 07:19:49;;;;;;;2.50;1.27;;;;;;;20.45;61.05;101069.31;5034107;28;20754;-59
2022/05/09 07:22:14;;;;;;;2.23;1.53;;;;;;;20.44;61.01;101071.38;5034140;28;20407;-58
2022/05/09 07:24:40;;;;;;;2.10;1.30;;;;;;;20.45;60.93;101078.75;5034259;28;20185;-58
2022/05/09 07:27:06;;;;;;;1.80;1.20;;;;;;;20.45;60.85;101078.75;5034151;28;20185;-58
2022/05/09 07:29:31;;;;;;;2.20;1.20;;;;;;;20.45;60.94;101081.63;5033824;28;20483;-58
2022/05/09 07:31:57;;;;;;;1.90;1.07;;;;;;;20.45;60.54;101075.91;5031975;28;20511;-58
2022/05/09 07:34:22;;;;;;;2.43;1.47;;;;;;;20.44;60.92;101074.25;5032675;28;20179;-59
2022/05/09 07:36:48;;;;;;;2.93;2.37;;;;;;;20.38;60.87;101081.47;5027871;28;20212;-60
2022/05/09 07:39:13;;;;;;;7.10;4.80;;;;;;;20.31;60.17;101081.28;5031098;28;20183;-58
2022/05/09 07:41:39;;;;;;;8.30;5.60;;;;;;;20.21;59.47;101081.88;5031006;28;20188;-58
2022/05/09 07:44:04;;;;;;;9.23;6.53;;;;;;;20.19;59.55;101081.44;5032302;28;20177;-59
2022/05/09 07:46:30;;;;;;;9.80;7.00;;;;;;;20.20;59.57;101096.59;5031950;28;20198;-58
2022/05/09 07:48:55;;;;;;;9.40;7.30;;;;;;;20.20;59.67;101090.84;5031688;28;20183;-58
2022/05/09 07:51:21;;;;;;;12.67;8.50;;;;;;;20.16;59.78;101093.63;5013598;28;20181;-58
2022/05/09 07:53:46;;;;;;;10.53;8.47;;;;;;;20.40;60.42;101090.53;5031079;28;20184;-58
2022/05/09 07:56:11;;;;;;;25.47;12.00;;;;;;;20.67;60.40;101078.00;5031460;28;20246;-58
2022/05/09 07:58:37;;;;;;;15.07;11.70;;;;;;;20.80;60.31;101079.53;5029836;28;20234;-57
2022/05/09 08:01:03;;;;;;;16.60;9.60;;;;;;;20.70;60.40;101076.44;5028725;28;20195;-58
2022/05/09 08:03:30;;;;;;;15.73;9.77;;;;;;;20.60;60.22;101077.88;5028957;28;20210;-59
2022/05/09 08:05:56;;;;;;;13.97;8.77;;;;;;;20.56;60.30;101087.59;5029809;28;20411;-58
2022/05/09 08:08:22;;;;;;;12.17;9.50;;;;;;;20.50;60.21;101078.47;5039195;28;20430;-58
2022/05/09 08:10:48;;;;;;;12.70;9.27;;;;;;;20.43;60.17;101086.94;5012730;28;20427;-58
2022/05/09 08:13:14;;;;;;;15.83;9.50;;;;;;;20.40;59.35;101089.69;5031264;28;20180;-58
2022/05/09 08:15:40;;;;;;;12.13;8.67;;;;;;;20.40;60.45;101084.78;5031410;28;20475;-58
2022/05/09 08:18:05;;;;;;;13.27;9.23;;;;;;;20.36;59.79;101083.88;5033186;28;21135;-58
2022/05/09 08:20:34;;;;;;;11.73;9.20;;;;;;;20.30;60.21;101087.41;5032966;28;20658;-58
2022/05/09 08:23:00;;;;;;;15.47;9.27;;;;;;;20.30;60.24;101079.63;5032834;28;20523;-59
2022/05/09 08:25:26;;;;;;;11.60;8.57;;;;;;;20.31;59.71;101084.16;5032706;28;20796;-58
2022/05/09 08:27:51;;;;;;;12.40;9.03;;;;;;;20.34;60.18;101091.19;5032551;28;20426;-58
2022/05/09 08:30:18;;;;;;;12.33;8.23;;;;;;;20.32;60.13;101091.56;5031620;28;20256;-58
2022/05/09 08:32:43;;;;;;;14.10;9.40;;;;;;;20.33;60.46;101096.13;5012339;28;20183;-58
2022/05/09 08:35:09;;;;;;;11.17;9.00;;;;;;;20.35;60.39;101093.69;5031066;28;20558;-58
2022/05/09 08:37:35;;;;;;;16.77;10.70;;;;;;;20.39;60.69;101093.75;5032306;28;20176;-58
2022/05/09 08:40:04;;;;;;;19.53;9.30;;;;;;;20.39;60.83;101083.13;5031222;28;20203;-58
2022/05/09 08:42:40;;;;;;;14.40;9.00;;;;;;;20.39;60.82;101091.75;5030998;28;20490;-57
2022/05/09 08:45:35;;;;;;;13.23;9.10;;;;;;;20.40;60.51;101090.53;5032037;28;20396;-58
2022/05/09 08:48:10;;;;;;;11.77;8.60;;;;;;;20.41;60.74;101077.84;5032108;28;20414;-58
2022/05/09 08:50:41;;;;;;;12.73;8.57;;;;;;;20.42;60.89;101079.50;5031256;28;20434;-57
2022/05/09 08:53:10;;;;;;;13.87;9.80;;;;;;;20.41;60.77;101072.09;5031589;28;20477;-58
2022/05/09 08:55:41;;;;;;;13.00;8.50;;;;;;;20.43;60.96;101072.59;5015063;28;20882;-58
2022/05/09 08:58:40;;;;;;;11.93;8.23;;;;;;;20.43;60.99;101077.47;5014536;28;20780;-58
2022/05/09 09:01:31;;;;;;;15.67;8.57;;;;;;;20.42;60.99;101073.75;5030663;28;20395;-58
2022/05/09 09:03:59;;;;;;;17.03;8.60;;;;;;;20.43;61.03;101077.47;5013627;28;20417;-58
2022/05/09 09:07:02;;;;;;;13.37;8.13;;;;;;;20.43;61.01;101080.34;5030339;28;20419;-58
2022/05/09 09:09:30;;;;;;;15.93;7.57;;;;;;;20.43;61.17;101075.44;5030519;28;20407;-59
2022/05/09 09:12:25;;;;;;;13.13;8.57;;;;;;;20.44;61.08;101074.25;5011626;28;20481;-57
2022/05/09 09:15:08;;;;;;;12.90;8.60;;;;;;;20.43;60.84;101081.19;5010597;28;20452;-58
2022/05/09 09:17:45;;;;;;;10.17;6.83;;;;;;;20.43;61.33;101075.44;5013914;28;20423;-58
2022/05/09 09:20:17;;;;;;;10.13;8.20;;;;;;;20.46;60.95;101073.88;5030483;28;20422;-58
2022/05/09 09:22:43;;;;;;;15.53;7.97;;;;;;;20.44;61.25;101071.38;5031860;28;20472;-58
2022/05/09 09:25:30;;;;;;;9.80;8.00;;;;;;;20.45;60.85;101075.91;5031372;28;21216;-58
2022/05/09 09:28:02;;;;;;;11.33;8.17;;;;;;;20.46;61.40;101077.53;5030790;28;20173;-58
2022/05/09 09:30:29;;;;;;;15.70;9.10;;;;;;;20.47;61.18;101073.47;5010030;28;20480;-58
2022/05/09 09:33:03;;;;;;;11.60;8.00;;;;;;;20.46;61.69;101071.81;5011852;28;20427;-58
2022/05/09 09:35:47;;;;;;;14.93;8.77;;;;;;;20.48;61.15;101074.31;5012029;28;20964;-58
2022/05/09 09:38:14;;;;;;;8.97;7.73;;;;;;;20.48;61.65;101075.16;5011762;28;20423;-58
2022/05/09 09:40:40;;;;;;;13.60;7.80;;;;;;;20.48;61.48;101072.28;5011861;28;20419;-58
2022/05/09 09:43:05;;;;;;;11.30;8.30;;;;;;;20.48;61.60;101080.03;5011565;28;20755;-58
2022/05/09 09:45:34;;;;;;;10.33;8.07;;;;;;;20.48;61.49;101069.41;5011150;28;20173;-58
2022/05/09 09:48:10;;;;;;;13.03;7.43;;;;;;;20.49;61.60;101073.09;5009619;28;20166;-58
2022/05/09 09:50:35;;;;;;;11.50;7.40;;;;;;;20.49;61.64;101070.22;5009847;28;20422;-58
2022/05/09 09:53:01;;;;;;;13.57;8.30;;;;;;;20.49;61.55;101073.94;5009754;28;20415;-58
2022/05/09 09:55:39;;;;;;;11.30;8.90;;;;;;;20.49;61.60;101071.06;5007991;28;20205;-58
2022/05/09 09:58:34;;;;;;;9.27;8.07;;;;;;;20.51;61.30;101062.91;5009507;28;20180;-58
2022/05/09 10:01:10;;;;;;;9.07;7.63;;;;;;;20.51;61.33;101060.03;4993183;28;20493;-58
2022/05/09 10:03:38;;;;;;;9.03;7.37;;;;;;;20.52;61.52;101067.44;5010982;28;20424;-58
2022/05/09 10:06:04;;;;;;;10.37;8.37;;;;;;;20.51;60.96;101054.31;5009789;28;20470;-58
2022/05/09 10:08:37;;;;;;;11.87;8.37;;;;;;;20.53;61.43;101062.53;5010059;28;20432;-58
2022/05/09 10:11:18;;;;;;;13.63;7.90;;;;;;;20.55;61.34;101060.13;5010027;28;20432;-58
2022/05/09 10:13:48;;;;;;;12.80;7.57;;;;;;;20.53;61.70;101054.75;5010266;28;20471;-58
2022/05/09 10:16:23;;;;;;;10.60;7.50;;;;;;;20.54;61.68;101044.97;5010378;28;20471;-57
2022/05/09 10:18:50;;;;;;;9.70;7.17;;;;;;;20.54;61.71;101032.63;5010656;28;20400;-58
2022/05/09 10:24:47;;;;;;;9.03;7.20;;;;;;;20.53;61.69;101040.41;5011219;28;20411;-58
2022/05/09 10:26:57;;;;;;;9.13;7.03;;;;;;;20.54;61.58;101030.63;5010690;28;20396;-58
2022/05/09 10:29:24;;;;;;;11.10;6.80;;;;;;;20.56;61.44;101031.06;5015941;28;20475;-58
2022/05/09 10:31:55;;;;;;;11.33;7.60;;;;;;;20.58;61.32;101031.50;5011620;28;20259;-58
2022/05/09 10:34:26;;;;;;;10.77;8.10;;;;;;;20.58;61.62;101034.38;5013033;28;21165;-58
2022/05/09 10:36:58;;;;;;;9.13;7.83;;;;;;;20.58;61.53;101027.81;4998801;28;20466;-58
2022/05/09 10:40:04;;;;;;;9.80;7.17;;;;;;;20.58;61.36;101017.16;4975281;28;20417;-58
2022/05/09 10:42:34;;;;;;;9.73;6.73;;;;;;;20.58;61.33;101025.75;4967307;28;20841;-59
2022/05/09 10:45:10;;;;;;;8.73;7.10;;;;;;;20.58;61.67;101014.28;4985677;28;20518;-58
2022/05/09 10:48:15;;;;;;;11.00;7.67;;;;;;;20.60;61.78;101011.88;5008682;28;20426;-58
2022/05/09 10:50:51;;;;;;;9.57;7.23;;;;;;;20.62;61.52;101006.59;4919825;29;20443;-58
2022/05/09 10:53:19;;;;;;;9.20;7.00;;;;;;;20.62;61.13;101008.66;4999895;28;20431;-59
2022/05/09 10:56:07;;;;;;;8.30;7.03;;;;;;;20.63;61.19;101007.44;5011378;28;20455;-58
2022/05/09 10:58:54;;;;;;;9.17;7.33;;;;;;;20.63;61.46;101005.38;5010799;28;20467;-58
2022/05/09 11:01:25;;;;;;;11.30;7.10;;;;;;;20.63;61.29;101002.50;5023709;28;20858;-58
2022/05/09 11:03:52;;;;;;;12.10;7.13;;;;;;;20.64;61.08;100998.44;5013041;28;20431;-59
2022/05/09 11:06:31;;;;;;;9.03;7.50;;;;;;;20.63;61.13;100999.63;5012790;28;20426;-58
2022/05/09 11:09:53;;;;;;;8.10;7.27;;;;;;;20.64;61.22;100992.72;5030362;28;20402;-58
2022/05/09 11:12:31;;;;;;;8.40;6.50;;;;;;;20.62;61.36;100983.63;4949953;29;20434;-59
2022/05/09 11:15:17;;;;;;;8.30;7.20;;;;;;;20.63;61.45;100979.56;4949282;29;20465;-58
2022/05/09 11:18:14;;;;;;;8.77;6.83;;;;;;;20.64;61.37;100984.09;4987557;28;20944;-58
2022/05/09 11:20:48;;;;;;;9.40;7.07;;;;;;;20.66;61.53;100978.81;5018265;28;20416;-59
2022/05/09 11:23:32;;;;;;;9.30;7.30;;;;;;;20.67;61.42;100968.97;4976915;28;20407;-58
2022/05/09 11:26:25;;;;;;;10.13;7.20;;;;;;;20.66;61.17;100966.47;5010573;28;20416;-59
2022/05/09 11:29:07;;;;;;;8.27;6.93;;;;;;;20.65;61.26;100968.53;5011767;28;20848;-59
2022/05/09 11:31:36;;;;;;;8.97;6.70;;;;;;;20.65;61.05;100965.66;4997710;28;20423;-58
2022/05/09 11:34:22;;;;;;;8.03;6.10;;;;;;;20.69;61.10;100960.00;5013904;28;20805;-58
2022/05/09 11:37:12;;;;;;;10.87;7.97;;;;;;;20.68;61.10;100958.34;4998296;28;20446;-59
2022/05/09 11:39:48;;;;;;;8.53;6.83;;;;;;;20.68;61.06;100956.28;4982253;28;20972;-59
2022/05/09 11:45:57;;;;;;;11.67;7.10;;;;;;;20.70;60.63;100948.16;5030920;28;20485;-59
2022/05/09 11:48:44;;;;;;;8.60;6.47;;;;;;;20.70;60.63;100951.03;5033480;28;20906;-59